Winchester, KS (66097)

8:47 AM CST on December 10, 2016 (GMT -0600)
8 Mile Farm Ln | | Change Station

Elev 1115 ft 39.37 °N, 95.04 °W | Updated 25 seconds ago

Overcast
Overcast
25.0 °F
Feels Like 19 °F
N
5.0
Wind Variable Wind from ESE

Today
High -- | Low -- °F
--% Chance of Precip.
Yesterday
High -- | Low -- °F
Precip. -- in
Pressure 30.45 in
Visibility 10.0 miles
Clouds Overcast 4100 ft
Windchill 19 °F
Dew Point 16 °F
Humidity 70%
Rainfall 0.00 in
Snow Depth Not available.
7:30 AM 4:57 PM
Waxing Gibbous, 84% visible
METAR KLWC 101352Z AUTO 09005KT 10SM OVC041 M03/M07 A3042 RMK AO2 SLP310 T10331072
Pressure 30.45 in
Visibility 10.0 miles
Clouds Overcast 4100 ft
Windchill 19 °F
Dew Point 16 °F
Humidity 70%
Rainfall 0.00 in
Snow Depth Not available.
7:30 AM 4:57 PM
Waxing Gibbous, 84% visible
METAR KLWC 101352Z AUTO 09005KT 10SM OVC041 M03/M07 A3042 RMK AO2 SLP310 T10331072

10-Day Weather Forecast

Almanac

Astronomy

Dec. 10, 2016 Rise Set
Actual Time
Civil Twilight
Nautical Twilight
Astronomical Twilight
Moon
Length of Visible Light
Length of Day
Tomorrow will be .
, % of the Moon is Illuminated

Today's Extremes

State Highs State Lows

Community

WunderPhotos

Upload Photos

1,956,549 photos uploaded!

WunderBlog® & News

Nearby

Air Quality

  Air Quality AQ Index Pollutant
Not available.

Snow Depth

Station Depth Elevation

Earthquake Activity

City Distance Mag. Time & Date
Minimum magnitude displayed is 2.5.

Coastal Water Temperatures

Place Temperature

Stations

Nearby Weather Stations

Station Location Temp. Windchill Dew Point Humidity Wind Precip. Elev Updated Type
                   

Watches & Warnings

There are currently no watches in effect.